Terminal Aerodrome Forecast
Issued by NWS Des Moines, IA

Home | Current Version | Previous Version | Text Only | Print | Product List | Glossary On
Versions: 1 2 3 4 5 6 7 8 9 10 11 12 13 14 15 16 17 18 19 20 21 22 23 24 25 26 27 28 29 30 31 32 33 34 35 36 37 38 39 40 41 42
000
FTUS43 KDMX 311736
TAFDSM
TAF
KDSM 311736Z 3118/0118 32008KT P6SM FEW120
     FM312200 35005KT P6SM VCSH SCT040 SCT060
     FM010300 VRB04KT P6SM FEW100
     FM011400 29007KT P6SM FEW040 SCT100=

USA.gov is the U.S. government's official web portal to all federal, state and local government web resources and services.